sensor_id;sensor_type;location;lat;lon;timestamp;temperature;humidity
26623;DHT22;14254;50.968;5.366;2022-08-21T00:01:14;15.80;99.90
26623;DHT22;14254;50.968;5.366;2022-08-21T00:03:40;15.70;99.90
26623;DHT22;14254;50.968;5.366;2022-08-21T00:06:06;15.70;99.90
26623;DHT22;14254;50.968;5.366;2022-08-21T00:08:32;15.70;99.90
26623;DHT22;14254;50.968;5.366;2022-08-21T00:10:58;15.50;99.90
26623;DHT22;14254;50.968;5.366;2022-08-21T00:13:23;15.50;99.90
26623;DHT22;14254;50.968;5.366;2022-08-21T00:15:50;15.40;99.90
26623;DHT22;14254;50.968;5.366;2022-08-21T00:18:16;15.20;99.90
26623;DHT22;14254;50.968;5.366;2022-08-21T00:20:43;15.20;99.90
26623;DHT22;14254;50.968;5.366;2022-08-21T00:23:09;15.30;99.90
26623;DHT22;14254;50.968;5.366;2022-08-21T00:25:36;15.30;99.90
26623;DHT22;14254;50.968;5.366;2022-08-21T00:28:02;15.30;99.90
26623;DHT22;14254;50.968;5.366;2022-08-21T00:30:28;15.30;99.90
26623;DHT22;14254;50.968;5.366;2022-08-21T00:32:55;15.40;99.90
26623;DHT22;14254;50.968;5.366;2022-08-21T00:35:25;15.40;99.90
26623;DHT22;14254;50.968;5.366;2022-08-21T00:37:51;15.40;99.90
26623;DHT22;14254;50.968;5.366;2022-08-21T00:40:22;15.40;99.90
26623;DHT22;14254;50.968;5.366;2022-08-21T00:42:48;15.40;99.90
26623;DHT22;14254;50.968;5.366;2022-08-21T00:45:15;15.40;99.90
26623;DHT22;14254;50.968;5.366;2022-08-21T00:47:41;15.30;99.90
26623;DHT22;14254;50.968;5.366;2022-08-21T00:50:13;15.10;99.90
26623;DHT22;14254;50.968;5.366;2022-08-21T00:52:39;15.00;99.90
26623;DHT22;14254;50.968;5.366;2022-08-21T00:55:08;14.90;99.90
26623;DHT22;14254;50.968;5.366;2022-08-21T00:57:40;14.80;99.90
26623;DHT22;14254;50.968;5.366;2022-08-21T01:00:13;14.80;99.90
26623;DHT22;14254;50.968;5.366;2022-08-21T01:02:40;14.70;99.90
26623;DHT22;14254;50.968;5.366;2022-08-21T01:05:08;14.70;99.90
26623;DHT22;14254;50.968;5.366;2022-08-21T01:07:35;14.80;99.90
26623;DHT22;14254;50.968;5.366;2022-08-21T01:10:02;14.80;99.90
26623;DHT22;14254;50.968;5.366;2022-08-21T01:12:28;14.70;99.90
26623;DHT22;14254;50.968;5.366;2022-08-21T01:14:54;14.90;99.90
26623;DHT22;14254;50.968;5.366;2022-08-21T01:17:21;14.80;99.90
26623;DHT22;14254;50.968;5.366;2022-08-21T01:19:47;14.60;99.90
26623;DHT22;14254;50.968;5.366;2022-08-21T01:22:13;14.70;99.90
26623;DHT22;14254;50.968;5.366;2022-08-21T01:24:38;14.70;99.90
26623;DHT22;14254;50.968;5.366;2022-08-21T01:27:04;14.70;99.90
26623;DHT22;14254;50.968;5.366;2022-08-21T01:32:04;14.50;99.90
26623;DHT22;14254;50.968;5.366;2022-08-21T01:34:32;14.60;99.90
26623;DHT22;14254;50.968;5.366;2022-08-21T01:36:58;14.50;99.90
26623;DHT22;14254;50.968;5.366;2022-08-21T01:39:23;14.40;99.90
26623;DHT22;14254;50.968;5.366;2022-08-21T01:41:49;14.30;99.90
26623;DHT22;14254;50.968;5.366;2022-08-21T01:44:15;14.40;99.90
26623;DHT22;14254;50.968;5.366;2022-08-21T01:46:41;14.40;99.90
26623;DHT22;14254;50.968;5.366;2022-08-21T01:49:07;14.50;99.90
26623;DHT22;14254;50.968;5.366;2022-08-21T01:51:33;14.50;99.90
26623;DHT22;14254;50.968;5.366;2022-08-21T01:53:59;14.60;99.90
26623;DHT22;14254;50.968;5.366;2022-08-21T01:56:25;14.40;99.90
26623;DHT22;14254;50.968;5.366;2022-08-21T01:58:51;14.30;99.90
26623;DHT22;14254;50.968;5.366;2022-08-21T02:01:17;14.30;99.90
26623;DHT22;14254;50.968;5.366;2022-08-21T02:03:42;14.30;99.90
26623;DHT22;14254;50.968;5.366;2022-08-21T02:06:13;14.20;99.90
26623;DHT22;14254;50.968;5.366;2022-08-21T02:08:40;14.20;99.90
26623;DHT22;14254;50.968;5.366;2022-08-21T02:11:06;14.10;99.90
26623;DHT22;14254;50.968;5.366;2022-08-21T02:13:32;13.90;99.90
26623;DHT22;14254;50.968;5.366;2022-08-21T02:15:57;13.90;99.90
26623;DHT22;14254;50.968;5.366;2022-08-21T02:18:23;13.60;99.90
26623;DHT22;14254;50.968;5.366;2022-08-21T02:20:49;13.50;99.90
26623;DHT22;14254;50.968;5.366;2022-08-21T02:23:15;13.40;99.90
26623;DHT22;14254;50.968;5.366;2022-08-21T02:25:41;13.40;99.90
26623;DHT22;14254;50.968;5.366;2022-08-21T02:28:12;13.40;99.90
26623;DHT22;14254;50.968;5.366;2022-08-21T02:30:42;13.50;99.90
26623;DHT22;14254;50.968;5.366;2022-08-21T02:33:08;13.50;99.90
26623;DHT22;14254;50.968;5.366;2022-08-21T02:35:35;13.60;99.90
26623;DHT22;14254;50.968;5.366;2022-08-21T02:38:05;13.60;99.90
26623;DHT22;14254;50.968;5.366;2022-08-21T02:40:35;13.60;99.90
26623;DHT22;14254;50.968;5.366;2022-08-21T02:43:02;13.60;99.90
26623;DHT22;14254;50.968;5.366;2022-08-21T02:45:29;13.70;99.90
26623;DHT22;14254;50.968;5.366;2022-08-21T02:48:03;13.70;99.90
26623;DHT22;14254;50.968;5.366;2022-08-21T02:50:36;13.70;99.90
26623;DHT22;14254;50.968;5.366;2022-08-21T02:53:03;13.60;99.90
26623;DHT22;14254;50.968;5.366;2022-08-21T02:55:31;13.60;99.90
26623;DHT22;14254;50.968;5.366;2022-08-21T02:57:58;13.50;99.90
26623;DHT22;14254;50.968;5.366;2022-08-21T03:00:26;13.40;99.90
26623;DHT22;14254;50.968;5.366;2022-08-21T03:02:53;13.20;99.90
26623;DHT22;14254;50.968;5.366;2022-08-21T03:05:19;13.20;99.90
26623;DHT22;14254;50.968;5.366;2022-08-21T03:07:46;13.30;99.90
26623;DHT22;14254;50.968;5.366;2022-08-21T03:10:13;13.20;99.90
26623;DHT22;14254;50.968;5.366;2022-08-21T03:12:39;13.20;99.90
26623;DHT22;14254;50.968;5.366;2022-08-21T03:15:07;13.20;99.90
26623;DHT22;14254;50.968;5.366;2022-08-21T03:17:33;13.30;99.90
26623;DHT22;14254;50.968;5.366;2022-08-21T03:19:59;13.30;99.90
26623;DHT22;14254;50.968;5.366;2022-08-21T03:22:26;13.30;99.90
26623;DHT22;14254;50.968;5.366;2022-08-21T03:24:52;13.30;99.90
26623;DHT22;14254;50.968;5.366;2022-08-21T03:27:18;13.30;99.90
26623;DHT22;14254;50.968;5.366;2022-08-21T03:29:43;13.30;99.90
26623;DHT22;14254;50.968;5.366;2022-08-21T03:32:09;13.10;99.90
26623;DHT22;14254;50.968;5.366;2022-08-21T03:34:39;13.00;99.90
26623;DHT22;14254;50.968;5.366;2022-08-21T03:37:06;13.00;99.90
26623;DHT22;14254;50.968;5.366;2022-08-21T03:39:33;13.00;99.90
26623;DHT22;14254;50.968;5.366;2022-08-21T03:41:59;12.90;99.90
26623;DHT22;14254;50.968;5.366;2022-08-21T03:44:25;12.90;99.90
26623;DHT22;14254;50.968;5.366;2022-08-21T03:46:54;12.80;99.90
26623;DHT22;14254;50.968;5.366;2022-08-21T03:49:20;12.80;99.90
26623;DHT22;14254;50.968;5.366;2022-08-21T03:51:46;12.80;99.90
26623;DHT22;14254;50.968;5.366;2022-08-21T03:54:12;12.70;99.90
26623;DHT22;14254;50.968;5.366;2022-08-21T03:56:37;12.60;99.90
26623;DHT22;14254;50.968;5.366;2022-08-21T03:59:04;12.60;99.90
26623;DHT22;14254;50.968;5.366;2022-08-21T04:01:31;12.60;99.90
26623;DHT22;14254;50.968;5.366;2022-08-21T04:03:56;12.60;99.90
26623;DHT22;14254;50.968;5.366;2022-08-21T04:06:22;12.60;99.90
26623;DHT22;14254;50.968;5.366;2022-08-21T04:08:48;12.60;99.90
26623;DHT22;14254;50.968;5.366;2022-08-21T04:11:14;12.60;99.90
26623;DHT22;14254;50.968;5.366;2022-08-21T04:13:40;12.60;99.90
26623;DHT22;14254;50.968;5.366;2022-08-21T04:16:07;12.50;99.90
26623;DHT22;14254;50.968;5.366;2022-08-21T04:18:32;12.50;99.90
26623;DHT22;14254;50.968;5.366;2022-08-21T04:20:59;12.60;99.90
26623;DHT22;14254;50.968;5.366;2022-08-21T04:23:25;12.50;99.90
26623;DHT22;14254;50.968;5.366;2022-08-21T04:25:53;12.50;99.90
26623;DHT22;14254;50.968;5.366;2022-08-21T04:28:20;12.50;99.90
26623;DHT22;14254;50.968;5.366;2022-08-21T04:30:45;12.40;99.90
26623;DHT22;14254;50.968;5.366;2022-08-21T04:33:12;12.40;99.90
26623;DHT22;14254;50.968;5.366;2022-08-21T04:35:37;12.40;99.90
26623;DHT22;14254;50.968;5.366;2022-08-21T04:38:03;12.30;99.90
26623;DHT22;14254;50.968;5.366;2022-08-21T04:40:29;12.30;99.90
26623;DHT22;14254;50.968;5.366;2022-08-21T04:43:04;12.30;99.90
26623;DHT22;14254;50.968;5.366;2022-08-21T04:45:36;12.30;99.90
26623;DHT22;14254;50.968;5.366;2022-08-21T04:48:04;12.30;99.90
26623;DHT22;14254;50.968;5.366;2022-08-21T04:56:10;12.30;99.90
26623;DHT22;14254;50.968;5.366;2022-08-21T04:58:38;12.40;99.90
26623;DHT22;14254;50.968;5.366;2022-08-21T05:01:07;12.40;99.90
26623;DHT22;14254;50.968;5.366;2022-08-21T05:03:34;12.40;99.90
26623;DHT22;14254;50.968;5.366;2022-08-21T05:06:04;12.50;99.90
26623;DHT22;14254;50.968;5.366;2022-08-21T05:08:31;12.60;99.90
26623;DHT22;14254;50.968;5.366;2022-08-21T05:10:57;12.70;99.90
26623;DHT22;14254;50.968;5.366;2022-08-21T05:13:23;12.70;99.90
26623;DHT22;14254;50.968;5.366;2022-08-21T05:15:49;12.60;99.90
26623;DHT22;14254;50.968;5.366;2022-08-21T05:18:15;12.60;99.90
26623;DHT22;14254;50.968;5.366;2022-08-21T05:20:40;12.80;99.90
26623;DHT22;14254;50.968;5.366;2022-08-21T05:23:12;12.80;99.90
26623;DHT22;14254;50.968;5.366;2022-08-21T05:25:38;12.90;99.90
26623;DHT22;14254;50.968;5.366;2022-08-21T05:28:04;13.00;99.90
26623;DHT22;14254;50.968;5.366;2022-08-21T05:30:30;13.00;99.90
26623;DHT22;14254;50.968;5.366;2022-08-21T05:33:00;13.10;99.90
26623;DHT22;14254;50.968;5.366;2022-08-21T05:35:27;13.20;99.90
26623;DHT22;14254;50.968;5.366;2022-08-21T05:37:53;13.40;99.90
26623;DHT22;14254;50.968;5.366;2022-08-21T05:40:19;13.50;99.90
26623;DHT22;14254;50.968;5.366;2022-08-21T05:42:44;13.60;99.90
26623;DHT22;14254;50.968;5.366;2022-08-21T05:45:10;13.80;99.90
26623;DHT22;14254;50.968;5.366;2022-08-21T05:47:36;13.90;99.90
26623;DHT22;14254;50.968;5.366;2022-08-21T05:50:03;14.00;99.90
26623;DHT22;14254;50.968;5.366;2022-08-21T05:52:29;14.20;99.90
26623;DHT22;14254;50.968;5.366;2022-08-21T05:54:55;14.30;99.90
26623;DHT22;14254;50.968;5.366;2022-08-21T05:57:21;14.40;99.90
26623;DHT22;14254;50.968;5.366;2022-08-21T05:59:48;14.60;99.90
26623;DHT22;14254;50.968;5.366;2022-08-21T06:02:14;14.70;99.90
26623;DHT22;14254;50.968;5.366;2022-08-21T06:04:41;14.90;99.90
26623;DHT22;14254;50.968;5.366;2022-08-21T06:07:08;15.00;99.90
26623;DHT22;14254;50.968;5.366;2022-08-21T06:09:34;15.20;99.90
26623;DHT22;14254;50.968;5.366;2022-08-21T06:12:04;15.30;99.90
26623;DHT22;14254;50.968;5.366;2022-08-21T06:14:30;15.40;99.90
26623;DHT22;14254;50.968;5.366;2022-08-21T06:17:02;15.60;99.90
26623;DHT22;14254;50.968;5.366;2022-08-21T06:19:28;15.70;99.90
26623;DHT22;14254;50.968;5.366;2022-08-21T06:21:54;15.80;99.90
26623;DHT22;14254;50.968;5.366;2022-08-21T06:24:19;16.00;99.90
26623;DHT22;14254;50.968;5.366;2022-08-21T06:26:45;16.10;99.90
26623;DHT22;14254;50.968;5.366;2022-08-21T06:29:12;16.30;99.90
26623;DHT22;14254;50.968;5.366;2022-08-21T06:31:42;16.40;99.90
26623;DHT22;14254;50.968;5.366;2022-08-21T06:34:08;16.60;99.90
26623;DHT22;14254;50.968;5.366;2022-08-21T06:36:34;16.70;99.90
26623;DHT22;14254;50.968;5.366;2022-08-21T06:38:59;16.80;99.90
26623;DHT22;14254;50.968;5.366;2022-08-21T06:41:25;17.00;99.90
26623;DHT22;14254;50.968;5.366;2022-08-21T06:43:51;17.10;99.90
26623;DHT22;14254;50.968;5.366;2022-08-21T06:46:17;17.10;99.90
26623;DHT22;14254;50.968;5.366;2022-08-21T06:48:43;17.20;99.90
26623;DHT22;14254;50.968;5.366;2022-08-21T06:51:08;17.20;99.90
26623;DHT22;14254;50.968;5.366;2022-08-21T06:53:34;17.40;99.90
26623;DHT22;14254;50.968;5.366;2022-08-21T06:56:00;17.60;99.90
26623;DHT22;14254;50.968;5.366;2022-08-21T06:58:26;17.70;99.90
26623;DHT22;14254;50.968;5.366;2022-08-21T07:00:51;17.70;99.90
26623;DHT22;14254;50.968;5.366;2022-08-21T07:03:19;17.70;99.90
26623;DHT22;14254;50.968;5.366;2022-08-21T07:05:46;17.70;99.90
26623;DHT22;14254;50.968;5.366;2022-08-21T07:08:11;17.90;99.90
26623;DHT22;14254;50.968;5.366;2022-08-21T07:10:37;18.20;99.90
26623;DHT22;14254;50.968;5.366;2022-08-21T07:13:03;18.30;99.90
26623;DHT22;14254;50.968;5.366;2022-08-21T07:15:29;18.40;99.90
26623;DHT22;14254;50.968;5.366;2022-08-21T07:17:55;18.60;99.90
26623;DHT22;14254;50.968;5.366;2022-08-21T07:20:20;18.70;99.90
26623;DHT22;14254;50.968;5.366;2022-08-21T07:22:46;18.80;99.90
26623;DHT22;14254;50.968;5.366;2022-08-21T07:25:12;18.90;99.90
26623;DHT22;14254;50.968;5.366;2022-08-21T07:27:37;19.00;99.90
26623;DHT22;14254;50.968;5.366;2022-08-21T07:30:04;19.10;99.90
26623;DHT22;14254;50.968;5.366;2022-08-21T07:32:30;19.20;99.90
26623;DHT22;14254;50.968;5.366;2022-08-21T07:34:56;19.30;99.90
26623;DHT22;14254;50.968;5.366;2022-08-21T07:37:22;19.50;99.90
26623;DHT22;14254;50.968;5.366;2022-08-21T07:39:47;19.60;99.90
26623;DHT22;14254;50.968;5.366;2022-08-21T07:42:15;19.60;99.90
26623;DHT22;14254;50.968;5.366;2022-08-21T07:44:41;19.70;99.90
26623;DHT22;14254;50.968;5.366;2022-08-21T07:47:06;19.60;99.90
26623;DHT22;14254;50.968;5.366;2022-08-21T07:49:32;19.60;99.90
26623;DHT22;14254;50.968;5.366;2022-08-21T07:51:57;19.60;99.90
26623;DHT22;14254;50.968;5.366;2022-08-21T07:54:23;19.60;99.90
26623;DHT22;14254;50.968;5.366;2022-08-21T07:56:49;19.70;99.90
26623;DHT22;14254;50.968;5.366;2022-08-21T07:59:15;19.80;99.90
26623;DHT22;14254;50.968;5.366;2022-08-21T08:01:40;19.90;99.90
26623;DHT22;14254;50.968;5.366;2022-08-21T08:04:06;19.90;99.90
26623;DHT22;14254;50.968;5.366;2022-08-21T08:06:32;20.00;99.90
26623;DHT22;14254;50.968;5.366;2022-08-21T08:08:58;20.10;99.90
26623;DHT22;14254;50.968;5.366;2022-08-21T08:11:24;20.30;99.90
26623;DHT22;14254;50.968;5.366;2022-08-21T08:13:51;20.50;99.90
26623;DHT22;14254;50.968;5.366;2022-08-21T08:16:18;20.70;99.90
26623;DHT22;14254;50.968;5.366;2022-08-21T08:18:44;20.90;99.90
26623;DHT22;14254;50.968;5.366;2022-08-21T08:21:11;21.10;99.90
26623;DHT22;14254;50.968;5.366;2022-08-21T08:23:37;21.10;99.90
26623;DHT22;14254;50.968;5.366;2022-08-21T08:26:04;21.10;99.90
26623;DHT22;14254;50.968;5.366;2022-08-21T08:28:31;21.10;99.90
26623;DHT22;14254;50.968;5.366;2022-08-21T08:30:58;21.10;99.90
26623;DHT22;14254;50.968;5.366;2022-08-21T08:33:24;21.10;99.90
26623;DHT22;14254;50.968;5.366;2022-08-21T08:35:50;21.00;99.90
26623;DHT22;14254;50.968;5.366;2022-08-21T08:38:18;21.00;99.90
26623;DHT22;14254;50.968;5.366;2022-08-21T08:41:00;21.10;99.90
26623;DHT22;14254;50.968;5.366;2022-08-21T08:43:32;21.30;99.90
26623;DHT22;14254;50.968;5.366;2022-08-21T08:46:02;21.40;99.90
26623;DHT22;14254;50.968;5.366;2022-08-21T08:51:44;21.50;99.90
26623;DHT22;14254;50.968;5.366;2022-08-21T08:54:19;21.70;99.90
26623;DHT22;14254;50.968;5.366;2022-08-21T08:56:47;22.00;99.90
26623;DHT22;14254;50.968;5.366;2022-08-21T08:59:19;22.00;99.90
26623;DHT22;14254;50.968;5.366;2022-08-21T09:01:46;22.20;99.90
26623;DHT22;14254;50.968;5.366;2022-08-21T09:04:13;22.20;99.90
26623;DHT22;14254;50.968;5.366;2022-08-21T09:15:32;22.50;99.90
26623;DHT22;14254;50.968;5.366;2022-08-21T09:21:09;22.30;99.90
26623;DHT22;14254;50.968;5.366;2022-08-21T09:26:13;22.10;99.90
26623;DHT22;14254;50.968;5.366;2022-08-21T09:28:40;22.40;99.90
26623;DHT22;14254;50.968;5.366;2022-08-21T09:31:29;22.40;99.90
26623;DHT22;14254;50.968;5.366;2022-08-21T09:34:08;22.70;99.90
26623;DHT22;14254;50.968;5.366;2022-08-21T09:36:44;22.70;99.90
26623;DHT22;14254;50.968;5.366;2022-08-21T09:39:21;22.80;99.90
26623;DHT22;14254;50.968;5.366;2022-08-21T09:41:58;22.80;99.90
26623;DHT22;14254;50.968;5.366;2022-08-21T09:44:31;22.90;99.90
26623;DHT22;14254;50.968;5.366;2022-08-21T09:46:57;22.90;99.90
26623;DHT22;14254;50.968;5.366;2022-08-21T09:49:30;22.90;99.90
26623;DHT22;14254;50.968;5.366;2022-08-21T09:51:56;23.00;99.90
26623;DHT22;14254;50.968;5.366;2022-08-21T09:54:32;23.20;99.90
26623;DHT22;14254;50.968;5.366;2022-08-21T09:59:51;23.70;99.90
26623;DHT22;14254;50.968;5.366;2022-08-21T10:02:34;23.20;99.90
26623;DHT22;14254;50.968;5.366;2022-08-21T10:05:14;23.40;99.90
26623;DHT22;14254;50.968;5.366;2022-08-21T10:07:40;23.60;99.90
26623;DHT22;14254;50.968;5.366;2022-08-21T10:10:25;24.00;99.90
26623;DHT22;14254;50.968;5.366;2022-08-21T10:13:14;24.10;99.90
26623;DHT22;14254;50.968;5.366;2022-08-21T10:16:07;24.30;99.90
26623;DHT22;14254;50.968;5.366;2022-08-21T10:36:24;25.00;99.90
26623;DHT22;14254;50.968;5.366;2022-08-21T10:44:39;25.60;98.60
26623;DHT22;14254;50.968;5.366;2022-08-21T10:47:24;25.50;99.00
26623;DHT22;14254;50.968;5.366;2022-08-21T10:53:16;25.80;98.90
26623;DHT22;14254;50.968;5.366;2022-08-21T10:55:48;25.70;99.20
26623;DHT22;14254;50.968;5.366;2022-08-21T10:58:29;25.80;99.20
26623;DHT22;14254;50.968;5.366;2022-08-21T11:04:07;25.60;98.30
26623;DHT22;14254;50.968;5.366;2022-08-21T11:06:37;25.50;98.60
26623;DHT22;14254;50.968;5.366;2022-08-21T11:09:13;25.30;99.30
26623;DHT22;14254;50.968;5.366;2022-08-21T11:11:50;25.60;98.90
26623;DHT22;14254;50.968;5.366;2022-08-21T11:17:33;25.60;99.00
26623;DHT22;14254;50.968;5.366;2022-08-21T11:20:52;25.50;98.80
26623;DHT22;14254;50.968;5.366;2022-08-21T11:22:58;25.60;99.90
26623;DHT22;14254;50.968;5.366;2022-08-21T11:25:37;25.00;99.20
26623;DHT22;14254;50.968;5.366;2022-08-21T11:36:41;24.90;99.90
26623;DHT22;14254;50.968;5.366;2022-08-21T11:41:43;28.40;95.80
26623;DHT22;14254;50.968;5.366;2022-08-21T11:44:23;30.90;90.70
26623;DHT22;14254;50.968;5.366;2022-08-21T11:52:33;28.40;91.30
26623;DHT22;14254;50.968;5.366;2022-08-21T11:55:15;30.50;88.80
26623;DHT22;14254;50.968;5.366;2022-08-21T11:58:07;33.40;81.70
26623;DHT22;14254;50.968;5.366;2022-08-21T12:00:40;34.70;75.80
26623;DHT22;14254;50.968;5.366;2022-08-21T12:03:11;35.80;70.20
26623;DHT22;14254;50.968;5.366;2022-08-21T12:05:41;36.10;67.80
26623;DHT22;14254;50.968;5.366;2022-08-21T12:11:24;31.20;76.70
26623;DHT22;14254;50.968;5.366;2022-08-21T12:16:42;30.20;77.70
26623;DHT22;14254;50.968;5.366;2022-08-21T12:19:12;30.70;77.90
26623;DHT22;14254;50.968;5.366;2022-08-21T12:21:59;32.00;74.50
26623;DHT22;14254;50.968;5.366;2022-08-21T12:24:32;32.40;75.50
26623;DHT22;14254;50.968;5.366;2022-08-21T12:29:54;33.20;72.80
26623;DHT22;14254;50.968;5.366;2022-08-21T12:32:44;33.70;70.40
26623;DHT22;14254;50.968;5.366;2022-08-21T12:35:17;31.90;72.40
26623;DHT22;14254;50.968;5.366;2022-08-21T12:38:29;30.50;77.10
26623;DHT22;14254;50.968;5.366;2022-08-21T12:40:52;31.30;77.30
26623;DHT22;14254;50.968;5.366;2022-08-21T12:43:32;34.20;69.90
26623;DHT22;14254;50.968;5.366;2022-08-21T12:45:59;36.00;68.60
26623;DHT22;14254;50.968;5.366;2022-08-21T12:48:31;36.70;64.90
26623;DHT22;14254;50.968;5.366;2022-08-21T12:51:10;39.10;61.70
26623;DHT22;14254;50.968;5.366;2022-08-21T12:53:54;39.20;58.40
26623;DHT22;14254;50.968;5.366;2022-08-21T12:56:23;40.70;56.10
26623;DHT22;14254;50.968;5.366;2022-08-21T12:58:54;41.70;53.10
26623;DHT22;14254;50.968;5.366;2022-08-21T13:01:39;41.00;53.80
26623;DHT22;14254;50.968;5.366;2022-08-21T13:04:17;40.50;52.10
26623;DHT22;14254;50.968;5.366;2022-08-21T13:06:50;39.70;53.50
26623;DHT22;14254;50.968;5.366;2022-08-21T13:09:20;39.20;52.30
26623;DHT22;14254;50.968;5.366;2022-08-21T13:11:48;37.50;54.70
26623;DHT22;14254;50.968;5.366;2022-08-21T13:16:55;38.80;54.10
26623;DHT22;14254;50.968;5.366;2022-08-21T13:19:22;39.00;52.80
26623;DHT22;14254;50.968;5.366;2022-08-21T13:21:48;36.20;56.70
26623;DHT22;14254;50.968;5.366;2022-08-21T13:24:21;35.20;58.40
26623;DHT22;14254;50.968;5.366;2022-08-21T13:26:48;35.40;58.80
26623;DHT22;14254;50.968;5.366;2022-08-21T13:29:18;36.50;56.80
26623;DHT22;14254;50.968;5.366;2022-08-21T13:31:55;38.20;55.80
26623;DHT22;14254;50.968;5.366;2022-08-21T13:34:23;39.60;53.50
26623;DHT22;14254;50.968;5.366;2022-08-21T13:36:56;40.50;51.50
26623;DHT22;14254;50.968;5.366;2022-08-21T13:39:23;40.80;51.10
26623;DHT22;14254;50.968;5.366;2022-08-21T13:41:55;41.00;50.30
26623;DHT22;14254;50.968;5.366;2022-08-21T13:44:24;40.60;50.10
26623;DHT22;14254;50.968;5.366;2022-08-21T13:46:57;39.60;51.90
26623;DHT22;14254;50.968;5.366;2022-08-21T13:49:30;38.80;52.00
26623;DHT22;14254;50.968;5.366;2022-08-21T13:51:57;38.50;52.30
26623;DHT22;14254;50.968;5.366;2022-08-21T13:54:25;38.90;52.70
26623;DHT22;14254;50.968;5.366;2022-08-21T13:56:53;38.70;52.30
26623;DHT22;14254;50.968;5.366;2022-08-21T13:59:32;37.70;53.20
26623;DHT22;14254;50.968;5.366;2022-08-21T14:02:20;37.30;53.90
26623;DHT22;14254;50.968;5.366;2022-08-21T14:04:58;36.50;53.80
26623;DHT22;14254;50.968;5.366;2022-08-21T14:07:34;37.30;53.30
26623;DHT22;14254;50.968;5.366;2022-08-21T14:10:05;39.40;50.60
26623;DHT22;14254;50.968;5.366;2022-08-21T14:12:51;40.80;50.10
26623;DHT22;14254;50.968;5.366;2022-08-21T14:15:23;42.50;47.50
26623;DHT22;14254;50.968;5.366;2022-08-21T14:17:50;41.70;48.70
26623;DHT22;14254;50.968;5.366;2022-08-21T14:20:32;36.20;54.00
26623;DHT22;14254;50.968;5.366;2022-08-21T14:22:58;35.60;55.10
26623;DHT22;14254;50.968;5.366;2022-08-21T14:30:34;32.90;59.10
26623;DHT22;14254;50.968;5.366;2022-08-21T14:33:02;31.60;61.60
26623;DHT22;14254;50.968;5.366;2022-08-21T14:35:28;32.10;60.90
26623;DHT22;14254;50.968;5.366;2022-08-21T14:37:54;32.30;59.70
26623;DHT22;14254;50.968;5.366;2022-08-21T14:40:21;32.20;60.00
26623;DHT22;14254;50.968;5.366;2022-08-21T14:42:48;32.00;60.00
26623;DHT22;14254;50.968;5.366;2022-08-21T14:47:47;31.30;61.70
26623;DHT22;14254;50.968;5.366;2022-08-21T14:50:13;31.30;62.30
26623;DHT22;14254;50.968;5.366;2022-08-21T14:52:40;31.20;62.30
26623;DHT22;14254;50.968;5.366;2022-08-21T14:55:07;30.30;64.50
26623;DHT22;14254;50.968;5.366;2022-08-21T14:57:36;29.30;67.00
26623;DHT22;14254;50.968;5.366;2022-08-21T15:00:04;29.10;67.80
26623;DHT22;14254;50.968;5.366;2022-08-21T15:02:30;28.90;68.40
26623;DHT22;14254;50.968;5.366;2022-08-21T15:04:56;28.60;69.60
26623;DHT22;14254;50.968;5.366;2022-08-21T15:07:21;29.10;67.80
26623;DHT22;14254;50.968;5.366;2022-08-21T15:09:47;28.90;68.10
26623;DHT22;14254;50.968;5.366;2022-08-21T15:12:13;29.20;68.90
26623;DHT22;14254;50.968;5.366;2022-08-21T15:14:40;29.90;66.10
26623;DHT22;14254;50.968;5.366;2022-08-21T15:17:08;29.50;66.90
26623;DHT22;14254;50.968;5.366;2022-08-21T15:19:34;29.30;68.10
26623;DHT22;14254;50.968;5.366;2022-08-21T15:22:00;29.90;67.70
26623;DHT22;14254;50.968;5.366;2022-08-21T15:24:26;30.20;66.30
26623;DHT22;14254;50.968;5.366;2022-08-21T15:26:54;30.50;65.90
26623;DHT22;14254;50.968;5.366;2022-08-21T15:29:20;30.80;65.00
26623;DHT22;14254;50.968;5.366;2022-08-21T15:31:55;30.50;65.50
26623;DHT22;14254;50.968;5.366;2022-08-21T15:34:23;30.50;65.60
26623;DHT22;14254;50.968;5.366;2022-08-21T15:36:49;30.40;66.10
26623;DHT22;14254;50.968;5.366;2022-08-21T15:39:15;30.20;66.30
26623;DHT22;14254;50.968;5.366;2022-08-21T15:41:42;30.20;66.20
26623;DHT22;14254;50.968;5.366;2022-08-21T15:44:09;29.90;67.00
26623;DHT22;14254;50.968;5.366;2022-08-21T15:46:36;29.60;66.80
26623;DHT22;14254;50.968;5.366;2022-08-21T15:49:02;29.30;69.00
26623;DHT22;14254;50.968;5.366;2022-08-21T15:51:28;29.50;68.90
26623;DHT22;14254;50.968;5.366;2022-08-21T15:53:54;30.30;66.70
26623;DHT22;14254;50.968;5.366;2022-08-21T15:56:26;31.20;64.70
26623;DHT22;14254;50.968;5.366;2022-08-21T15:58:54;31.10;64.90
26623;DHT22;14254;50.968;5.366;2022-08-21T16:01:34;31.00;65.00
26623;DHT22;14254;50.968;5.366;2022-08-21T16:04:01;31.30;63.80
26623;DHT22;14254;50.968;5.366;2022-08-21T16:06:27;31.50;63.20
26623;DHT22;14254;50.968;5.366;2022-08-21T16:08:53;30.60;64.10
26623;DHT22;14254;50.968;5.366;2022-08-21T16:11:18;30.70;63.00
26623;DHT22;14254;50.968;5.366;2022-08-21T16:13:45;30.50;63.50
26623;DHT22;14254;50.968;5.366;2022-08-21T16:16:14;30.00;65.10
26623;DHT22;14254;50.968;5.366;2022-08-21T16:18:41;29.90;66.90
26623;DHT22;14254;50.968;5.366;2022-08-21T16:21:07;29.80;66.50
26623;DHT22;14254;50.968;5.366;2022-08-21T16:23:34;29.40;67.40
26623;DHT22;14254;50.968;5.366;2022-08-21T16:26:04;28.90;68.00
26623;DHT22;14254;50.968;5.366;2022-08-21T16:28:31;28.70;69.20
26623;DHT22;14254;50.968;5.366;2022-08-21T16:30:58;28.50;69.10
26623;DHT22;14254;50.968;5.366;2022-08-21T16:33:31;28.40;69.60
26623;DHT22;14254;50.968;5.366;2022-08-21T16:35:58;28.00;70.80
26623;DHT22;14254;50.968;5.366;2022-08-21T16:38:26;27.40;72.60
26623;DHT22;14254;50.968;5.366;2022-08-21T16:40:53;27.30;73.60
26623;DHT22;14254;50.968;5.366;2022-08-21T16:43:21;27.60;73.20
26623;DHT22;14254;50.968;5.366;2022-08-21T16:45:49;27.40;73.70
26623;DHT22;14254;50.968;5.366;2022-08-21T16:48:15;27.50;74.60
26623;DHT22;14254;50.968;5.366;2022-08-21T16:50:40;27.30;75.20
26623;DHT22;14254;50.968;5.366;2022-08-21T16:53:06;27.10;75.90
26623;DHT22;14254;50.968;5.366;2022-08-21T16:55:34;27.30;76.00
26623;DHT22;14254;50.968;5.366;2022-08-21T16:58:02;27.40;76.10
26623;DHT22;14254;50.968;5.366;2022-08-21T17:00:29;27.40;76.20
26623;DHT22;14254;50.968;5.366;2022-08-21T17:02:55;27.30;76.30
26623;DHT22;14254;50.968;5.366;2022-08-21T17:05:21;27.20;76.70
26623;DHT22;14254;50.968;5.366;2022-08-21T17:07:46;26.90;77.10
26623;DHT22;14254;50.968;5.366;2022-08-21T17:10:14;26.60;78.40
26623;DHT22;14254;50.968;5.366;2022-08-21T17:12:42;26.80;77.90
26623;DHT22;14254;50.968;5.366;2022-08-21T17:15:18;26.70;78.70
26623;DHT22;14254;50.968;5.366;2022-08-21T17:17:44;26.80;78.10